createdAt,value
2023-05-24T00:00:21.988Z,3.70
2023-05-24T00:01:22.058Z,3.20
2023-05-24T00:02:21.951Z,3.20
2023-05-24T00:03:24.154Z,3.20
2023-05-24T00:04:21.949Z,3.30
2023-05-24T00:05:21.908Z,2.70
2023-05-24T00:06:21.854Z,2.80
2023-05-24T00:07:21.828Z,3.20
2023-05-24T00:08:21.858Z,3.00
2023-05-24T00:09:21.955Z,3.00
2023-05-24T00:10:21.858Z,3.00
2023-05-24T00:11:22.208Z,3.40
2023-05-24T00:12:21.830Z,2.90
2023-05-24T00:13:21.944Z,3.30
2023-05-24T00:14:21.715Z,3.20
2023-05-24T00:15:21.729Z,3.30
2023-05-24T00:16:21.884Z,3.00
2023-05-24T00:17:21.958Z,2.90
2023-05-24T00:18:21.724Z,3.00
2023-05-24T00:19:21.728Z,3.30
2023-05-24T00:20:21.788Z,3.10
2023-05-24T00:21:21.745Z,3.20
2023-05-24T00:22:21.726Z,3.10
2023-05-24T00:23:21.659Z,3.00
2023-05-24T00:24:23.639Z,3.00
2023-05-24T00:25:21.644Z,2.80
2023-05-24T00:26:21.693Z,3.10
2023-05-24T00:27:21.629Z,3.50
2023-05-24T00:28:21.605Z,3.10
2023-05-24T00:29:21.576Z,3.10
2023-05-24T00:30:21.654Z,3.30
2023-05-24T00:31:21.652Z,3.80
2023-05-24T00:32:21.589Z,3.70
2023-05-24T00:33:21.529Z,3.60
2023-05-24T00:34:21.552Z,3.20
2023-05-24T00:35:21.600Z,3.40
2023-05-24T00:36:21.727Z,3.90
2023-05-24T00:37:21.513Z,3.80
2023-05-24T00:38:21.480Z,3.20
2023-05-24T00:39:21.506Z,4.00
2023-05-24T00:40:21.496Z,3.50
2023-05-24T00:41:21.417Z,3.60
2023-05-24T00:42:21.448Z,3.80
2023-05-24T00:43:23.018Z,3.70
2023-05-24T00:44:21.476Z,4.10
2023-05-24T00:45:21.503Z,3.30
2023-05-24T00:46:21.462Z,3.80
2023-05-24T00:47:21.428Z,3.50
2023-05-24T00:48:21.686Z,3.30
2023-05-24T00:49:21.412Z,3.60
2023-05-24T00:50:21.408Z,3.90
2023-05-24T00:51:21.342Z,4.10
2023-05-24T00:52:21.342Z,3.50
2023-05-24T00:53:21.363Z,4.00
2023-05-24T00:54:23.358Z,4.20
2023-05-24T00:55:21.326Z,4.30
2023-05-24T00:56:21.321Z,3.90
2023-05-24T00:57:21.317Z,3.60
2023-05-24T00:58:21.304Z,3.80
2023-05-24T00:59:21.313Z,3.20
2023-05-24T01:00:21.581Z,4.40
2023-05-24T01:01:21.299Z,3.60
2023-05-24T01:02:21.275Z,3.10
2023-05-24T01:03:21.361Z,3.70
2023-05-24T01:04:21.264Z,4.10
2023-05-24T01:05:21.388Z,3.70
2023-05-24T01:06:22.678Z,3.40
2023-05-24T01:07:21.189Z,3.50
2023-05-24T01:08:21.239Z,3.60
2023-05-24T01:09:21.167Z,3.80
2023-05-24T01:10:21.147Z,3.30
2023-05-24T01:11:21.143Z,3.70
2023-05-24T01:12:21.148Z,3.60
2023-05-24T01:13:21.241Z,3.20
2023-05-24T01:14:21.157Z,3.00
2023-05-24T01:15:21.109Z,3.50
2023-05-24T01:16:21.107Z,3.50
2023-05-24T01:17:21.138Z,3.40
2023-05-24T01:18:21.126Z,3.60
2023-05-24T01:19:22.524Z,3.90
2023-05-24T01:20:21.148Z,3.80
2023-05-24T01:21:21.082Z,3.80
2023-05-24T01:22:21.053Z,3.20
2023-05-24T01:23:21.059Z,3.60
2023-05-24T01:24:20.996Z,3.30
2023-05-24T01:25:21.204Z,3.80
2023-05-24T01:26:22.456Z,3.70
2023-05-24T01:27:21.051Z,4.00
2023-05-24T01:28:20.987Z,3.90
2023-05-24T01:29:20.958Z,4.30
2023-05-24T01:30:20.945Z,4.70
2023-05-24T01:31:20.959Z,3.90
2023-05-24T01:32:21.134Z,3.90
2023-05-24T01:33:20.892Z,3.70
2023-05-24T01:34:20.895Z,3.90
2023-05-24T01:35:20.870Z,3.70
2023-05-24T01:36:20.942Z,3.90
2023-05-24T01:37:20.903Z,3.70
2023-05-24T01:38:20.875Z,3.70
2023-05-24T01:39:22.483Z,3.60
2023-05-24T01:40:20.826Z,4.30
2023-05-24T01:41:20.858Z,3.90
2023-05-24T01:42:20.805Z,4.00
2023-05-24T01:43:20.865Z,3.90
2023-05-24T01:44:20.848Z,3.80
2023-05-24T01:45:20.835Z,4.80
2023-05-24T01:46:21.034Z,3.60
2023-05-24T01:47:20.786Z,3.60
2023-05-24T01:48:20.730Z,4.60
2023-05-24T01:49:20.728Z,3.90
2023-05-24T01:50:20.803Z,4.20
2023-05-24T01:51:20.766Z,3.50
2023-05-24T01:52:22.694Z,3.70
2023-05-24T01:53:22.654Z,3.70
2023-05-24T01:54:20.684Z,3.80
2023-05-24T01:55:20.755Z,3.80
2023-05-24T01:56:20.660Z,4.00
2023-05-24T01:57:20.640Z,3.70
2023-05-24T01:58:20.610Z,3.90
2023-05-24T01:59:20.691Z,4.10
2023-05-24T02:00:20.698Z,4.00
2023-05-24T02:01:20.662Z,3.50
2023-05-24T02:02:20.663Z,3.90
2023-05-24T02:03:20.645Z,3.80
2023-05-24T02:04:20.620Z,3.80
2023-05-24T02:05:20.629Z,3.90
2023-05-24T02:06:20.633Z,3.30
2023-05-24T02:07:20.564Z,3.70
2023-05-24T02:08:20.491Z,3.80
2023-05-24T02:09:20.565Z,3.80
2023-05-24T02:10:20.512Z,3.80
2023-05-24T02:11:20.504Z,3.50
2023-05-24T02:12:20.503Z,3.50
2023-05-24T02:13:22.470Z,4.10
2023-05-24T02:14:20.517Z,4.20
2023-05-24T02:15:20.465Z,3.50
2023-05-24T02:16:20.466Z,3.60
2023-05-24T02:17:20.422Z,3.50
2023-05-24T02:18:20.472Z,4.40
2023-05-24T02:19:22.377Z,3.60
2023-05-24T02:20:21.938Z,4.30
2023-05-24T02:21:20.425Z,4.20
2023-05-24T02:22:20.371Z,4.30
2023-05-24T02:23:20.372Z,4.60
2023-05-24T02:24:20.357Z,4.00
2023-05-24T02:25:20.325Z,4.20
2023-05-24T02:26:20.349Z,4.00
2023-05-24T02:27:21.786Z,3.90
2023-05-24T02:28:20.436Z,3.80
2023-05-24T02:29:20.321Z,4.00
2023-05-24T02:30:20.285Z,4.30
2023-05-24T02:31:20.329Z,3.80
2023-05-24T02:32:20.332Z,4.10
2023-05-24T02:33:20.324Z,3.90
2023-05-24T02:34:20.316Z,3.90
2023-05-24T02:35:20.242Z,3.80
2023-05-24T02:36:20.210Z,3.90
2023-05-24T02:37:20.274Z,4.50
2023-05-24T02:38:20.202Z,4.30
2023-05-24T02:39:20.188Z,4.40
2023-05-24T02:40:22.131Z,3.90
2023-05-24T02:41:20.174Z,4.20
2023-05-24T02:42:20.233Z,4.50
2023-05-24T02:43:20.139Z,4.40
2023-05-24T02:44:20.141Z,4.80
2023-05-24T02:45:20.145Z,3.70
2023-05-24T02:46:20.193Z,4.60
2023-05-24T02:47:21.629Z,4.40
2023-05-24T02:48:20.123Z,4.40
2023-05-24T02:49:20.107Z,3.90
2023-05-24T02:50:20.086Z,3.90
2023-05-24T02:51:20.072Z,4.40
2023-05-24T02:52:21.203Z,4.40
2023-05-24T02:53:20.137Z,4.90
2023-05-24T02:54:20.110Z,4.10
2023-05-24T02:55:20.008Z,4.80
2023-05-24T02:56:20.044Z,4.40
2023-05-24T02:57:19.998Z,4.30
2023-05-24T02:58:19.968Z,4.40
2023-05-24T02:59:19.974Z,4.20
2023-05-24T03:00:20.036Z,4.60
2023-05-24T03:01:20.055Z,4.80
2023-05-24T03:02:19.932Z,4.90
2023-05-24T03:03:19.988Z,4.80
2023-05-24T03:04:19.904Z,4.60
2023-05-24T03:05:19.910Z,4.60
2023-05-24T03:06:19.939Z,4.80
2023-05-24T03:07:21.860Z,4.30
2023-05-24T03:08:19.900Z,4.40
2023-05-24T03:09:19.874Z,4.00
2023-05-24T03:10:19.844Z,4.80
2023-05-24T03:11:19.840Z,5.40
2023-05-24T03:12:19.799Z,5.10
2023-05-24T03:13:19.965Z,5.00
2023-05-24T03:14:21.788Z,4.70
2023-05-24T03:15:19.908Z,4.70
2023-05-24T03:16:20.009Z,4.80
2023-05-24T03:17:19.776Z,4.80
2023-05-24T03:18:19.773Z,5.10
2023-05-24T03:19:19.750Z,5.00
2023-05-24T03:20:19.782Z,5.50
2023-05-24T03:21:21.253Z,4.80
2023-05-24T03:22:19.735Z,4.90
2023-05-24T03:23:19.734Z,4.70
2023-05-24T03:24:19.712Z,5.70
2023-05-24T03:25:19.728Z,5.40
2023-05-24T03:26:19.688Z,5.30
2023-05-24T03:27:21.649Z,5.10
2023-05-24T03:28:19.684Z,4.70
2023-05-24T03:29:19.747Z,5.20
2023-05-24T03:30:19.708Z,4.90
2023-05-24T03:31:19.644Z,5.30
2023-05-24T03:32:19.633Z,5.20
2023-05-24T03:33:21.113Z,5.10
2023-05-24T03:34:19.679Z,5.20
2023-05-24T03:35:19.577Z,5.30
2023-05-24T03:36:19.556Z,5.60
2023-05-24T03:37:19.588Z,5.80
2023-05-24T03:38:19.584Z,5.70
2023-05-24T03:39:19.619Z,5.70
2023-05-24T03:40:20.998Z,5.40
2023-05-24T03:41:19.533Z,6.20
2023-05-24T03:42:19.512Z,5.40
2023-05-24T03:43:19.560Z,6.40
2023-05-24T03:44:19.524Z,5.50
2023-05-24T03:45:26.919Z,6.10
2023-05-24T03:46:21.939Z,4.90
2023-05-24T03:47:19.452Z,5.90
2023-05-24T03:48:19.443Z,6.30
2023-05-24T03:49:19.413Z,5.70
2023-05-24T03:50:19.404Z,6.00
2023-05-24T03:51:20.871Z,5.60
2023-05-24T03:52:19.406Z,5.80
2023-05-24T03:53:22.234Z,5.80
2023-05-24T03:54:19.375Z,6.00
2023-05-24T03:55:19.365Z,5.80
2023-05-24T03:56:19.341Z,5.40
2023-05-24T03:57:19.340Z,5.50
2023-05-24T03:58:20.898Z,5.70
2023-05-24T03:59:19.344Z,5.80
2023-05-24T04:00:19.362Z,6.40
2023-05-24T04:01:32.121Z,5.30
2023-05-24T04:02:20.383Z,5.70
2023-05-24T04:03:19.364Z,6.20
2023-05-24T04:04:21.250Z,6.20
2023-05-24T04:05:19.249Z,5.90
2023-05-24T04:06:19.246Z,5.00
2023-05-24T04:07:19.286Z,6.20
2023-05-24T04:08:21.060Z,6.20
2023-05-24T04:09:19.244Z,6.50
2023-05-24T04:10:21.177Z,5.90
2023-05-24T04:11:19.183Z,6.20
2023-05-24T04:12:19.295Z,5.90
2023-05-24T04:13:19.204Z,6.10
2023-05-24T04:14:19.157Z,7.20
2023-05-24T04:15:19.167Z,5.80
2023-05-24T04:16:19.243Z,5.80
2023-05-24T04:17:21.414Z,6.60
2023-05-24T04:18:19.212Z,6.40
2023-05-24T04:19:19.124Z,6.30
2023-05-24T04:20:19.118Z,6.80
2023-05-24T04:21:19.175Z,6.60
2023-05-24T04:22:19.110Z,6.00
2023-05-24T04:23:19.043Z,5.50
2023-05-24T04:24:19.157Z,5.50
2023-05-24T04:25:19.135Z,5.80
2023-05-24T04:26:19.091Z,5.60
2023-05-24T04:27:19.073Z,5.70
2023-05-24T04:28:18.999Z,5.60
2023-05-24T04:29:19.021Z,5.80
2023-05-24T04:30:21.013Z,5.30
2023-05-24T04:31:19.062Z,5.90
2023-05-24T04:32:18.981Z,5.30
2023-05-24T04:33:18.951Z,5.50
2023-05-24T04:34:18.926Z,6.10
2023-05-24T04:35:18.922Z,5.80
2023-05-24T04:36:19.015Z,5.60
2023-05-24T04:37:20.851Z,5.60
2023-05-24T04:38:20.642Z,5.50
2023-05-24T04:39:18.913Z,5.40
2023-05-24T04:40:18.901Z,5.50
2023-05-24T04:41:18.868Z,6.00
2023-05-24T04:42:18.849Z,6.10
2023-05-24T04:43:18.847Z,5.80
2023-05-24T04:44:18.851Z,5.90
2023-05-24T04:45:18.891Z,6.00
2023-05-24T04:46:18.874Z,5.70
2023-05-24T04:47:18.818Z,5.40
2023-05-24T04:48:18.779Z,5.30
2023-05-24T04:49:18.820Z,5.60
2023-05-24T04:50:18.817Z,5.60
2023-05-24T04:51:18.843Z,5.50
2023-05-24T04:52:18.759Z,5.10
2023-05-24T04:53:18.711Z,5.30
2023-05-24T04:54:18.766Z,5.00
2023-05-24T04:55:18.715Z,5.60
2023-05-24T04:56:18.652Z,5.30
2023-05-24T04:57:20.631Z,4.70
2023-05-24T04:58:18.729Z,4.80
2023-05-24T04:59:18.709Z,4.90
2023-05-24T05:00:18.640Z,4.80
2023-05-24T05:01:18.714Z,5.40
2023-05-24T05:02:18.647Z,5.30
2023-05-24T05:03:18.736Z,5.00
2023-05-24T05:04:20.618Z,5.30
2023-05-24T05:05:18.599Z,5.20
2023-05-24T05:06:18.597Z,5.00
2023-05-24T05:07:18.662Z,4.90
2023-05-24T05:08:18.608Z,4.70
2023-05-24T05:09:18.588Z,4.40
2023-05-24T05:10:18.572Z,5.10
2023-05-24T05:11:18.544Z,4.90
2023-05-24T05:12:18.537Z,5.20
2023-05-24T05:13:18.577Z,5.00
2023-05-24T05:14:18.506Z,4.80
2023-05-24T05:15:18.512Z,4.80
2023-05-24T05:16:18.523Z,4.80
2023-05-24T05:17:19.980Z,4.80
2023-05-24T05:18:18.575Z,4.60
2023-05-24T05:19:18.490Z,4.90
2023-05-24T05:20:18.524Z,5.20
2023-05-24T05:21:18.429Z,4.70
2023-05-24T05:22:18.473Z,4.80
2023-05-24T05:23:18.614Z,4.40
2023-05-24T05:24:18.525Z,4.70
2023-05-24T05:25:18.424Z,4.40
2023-05-24T05:26:18.377Z,4.50
2023-05-24T05:27:18.452Z,4.80
2023-05-24T05:28:18.393Z,4.90
2023-05-24T05:29:18.314Z,5.40
2023-05-24T05:30:18.434Z,4.50
2023-05-24T05:31:20.153Z,4.40
2023-05-24T05:32:18.459Z,5.50
2023-05-24T05:33:18.431Z,5.20
2023-05-24T05:34:18.294Z,4.60
2023-05-24T05:35:18.270Z,5.30
2023-05-24T05:36:18.283Z,4.80
2023-05-24T05:37:18.346Z,5.50
2023-05-24T05:38:18.251Z,5.20
2023-05-24T05:39:18.336Z,5.00
2023-05-24T05:40:18.239Z,5.20
2023-05-24T05:41:18.366Z,5.30
2023-05-24T05:42:18.216Z,5.20
2023-05-24T05:43:18.185Z,5.30
2023-05-24T05:44:18.148Z,5.00
2023-05-24T05:45:18.208Z,5.70
2023-05-24T05:46:18.256Z,6.10
2023-05-24T05:47:18.169Z,5.70
2023-05-24T05:48:18.147Z,5.40
2023-05-24T05:49:18.209Z,5.20
2023-05-24T05:50:18.184Z,5.50
2023-05-24T05:51:18.196Z,5.00
2023-05-24T05:52:18.101Z,4.90
2023-05-24T05:53:18.097Z,4.90
2023-05-24T05:54:18.062Z,4.80
2023-05-24T05:55:18.086Z,4.60
2023-05-24T05:56:18.241Z,5.00
2023-05-24T05:57:18.056Z,5.10
2023-05-24T05:58:18.054Z,5.20
2023-05-24T05:59:18.034Z,4.90
2023-05-24T06:00:18.057Z,4.90
2023-05-24T06:01:18.090Z,4.90
2023-05-24T06:02:18.233Z,5.10
2023-05-24T06:03:18.121Z,5.90
2023-05-24T06:04:18.156Z,4.50
2023-05-24T06:05:20.748Z,5.30
2023-05-24T06:06:17.940Z,5.30
2023-05-24T06:07:17.947Z,5.20
2023-05-24T06:08:19.915Z,5.40
2023-05-24T06:09:18.125Z,4.70
2023-05-24T06:10:17.977Z,4.60
2023-05-24T06:11:19.870Z,4.60
2023-05-24T06:12:17.904Z,4.50
2023-05-24T06:13:17.968Z,5.00
2023-05-24T06:14:18.362Z,4.10
2023-05-24T06:15:17.840Z,4.70
2023-05-24T06:16:17.883Z,4.80
2023-05-24T06:17:19.782Z,5.10
2023-05-24T06:18:17.894Z,4.90
2023-05-24T06:19:17.836Z,5.80
2023-05-24T06:20:18.251Z,6.20
2023-05-24T06:21:17.786Z,4.90
2023-05-24T06:22:17.785Z,4.70
2023-05-24T06:23:17.866Z,4.20
2023-05-24T06:24:17.755Z,4.90
2023-05-24T06:25:17.757Z,4.80
2023-05-24T06:26:19.665Z,4.90
2023-05-24T06:27:17.750Z,4.80
2023-05-24T06:28:17.789Z,5.10
2023-05-24T06:29:17.703Z,4.90
2023-05-24T06:30:17.736Z,4.70
2023-05-24T06:31:17.739Z,4.50
2023-05-24T06:32:17.782Z,4.60
2023-05-24T06:33:18.051Z,4.90
2023-05-24T06:34:17.665Z,5.30
2023-05-24T06:35:17.684Z,4.70
2023-05-24T06:36:17.659Z,4.70
2023-05-24T06:37:17.667Z,4.70
2023-05-24T06:38:17.636Z,5.50
2023-05-24T06:39:17.600Z,4.80
2023-05-24T06:40:17.609Z,5.10
2023-05-24T06:41:17.643Z,4.50
2023-05-24T06:42:17.665Z,4.90
2023-05-24T06:43:17.566Z,4.40
2023-05-24T06:44:17.613Z,5.20
2023-05-24T06:45:17.533Z,5.70
2023-05-24T06:46:17.579Z,4.90
2023-05-24T06:47:17.633Z,4.70
2023-05-24T06:48:17.908Z,4.80
2023-05-24T06:49:17.519Z,5.30
2023-05-24T06:50:17.467Z,4.80
2023-05-24T06:51:17.522Z,4.40
2023-05-24T06:52:17.493Z,4.80
2023-05-24T06:53:17.458Z,5.00
2023-05-24T06:54:17.438Z,4.70
2023-05-24T06:55:17.497Z,5.20
2023-05-24T06:56:17.449Z,5.20
2023-05-24T06:57:17.503Z,5.00
2023-05-24T06:58:17.481Z,4.50
2023-05-24T06:59:17.368Z,5.50
2023-05-24T07:00:17.504Z,4.70
2023-05-24T07:01:17.394Z,5.00
2023-05-24T07:02:17.385Z,4.80
2023-05-24T07:03:17.384Z,4.50
2023-05-24T07:04:17.358Z,4.70
2023-05-24T07:05:17.381Z,4.30
2023-05-24T07:06:17.428Z,5.30
2023-05-24T07:07:17.264Z,5.10
2023-05-24T07:08:17.254Z,5.10
2023-05-24T07:09:17.390Z,4.20
2023-05-24T07:10:17.333Z,4.80
2023-05-24T07:11:17.275Z,5.00
2023-05-24T07:12:17.357Z,4.30
2023-05-24T07:13:17.220Z,4.30
2023-05-24T07:14:17.223Z,4.70
2023-05-24T07:15:17.257Z,4.40
2023-05-24T07:16:17.300Z,4.50
2023-05-24T07:17:17.222Z,4.60
2023-05-24T07:18:18.645Z,5.20
2023-05-24T07:19:17.222Z,4.00
2023-05-24T07:20:17.191Z,4.20
2023-05-24T07:21:17.250Z,4.30
2023-05-24T07:22:17.129Z,4.20
2023-05-24T07:23:17.113Z,4.80
2023-05-24T07:24:17.131Z,4.50
2023-05-24T07:25:17.429Z,3.80
2023-05-24T07:26:19.411Z,4.30
2023-05-24T07:27:17.065Z,4.40
2023-05-24T07:28:17.053Z,4.80
2023-05-24T07:29:17.079Z,4.50
2023-05-24T07:30:31.005Z,3.80
2023-05-24T07:31:18.071Z,4.40
2023-05-24T07:32:17.899Z,4.60
2023-05-24T07:33:17.060Z,4.00
2023-05-24T07:34:17.072Z,4.20
2023-05-24T07:35:16.992Z,4.60
2023-05-24T07:36:16.946Z,4.80
2023-05-24T07:37:16.974Z,5.20
2023-05-24T07:38:17.030Z,3.90
2023-05-24T07:39:16.947Z,4.00
2023-05-24T07:40:16.931Z,4.80
2023-05-24T07:41:16.930Z,4.00
2023-05-24T07:42:16.963Z,4.60
2023-05-24T07:43:16.901Z,4.80
2023-05-24T07:44:17.126Z,4.30
2023-05-24T07:45:16.883Z,4.30
2023-05-24T07:46:16.923Z,4.40
2023-05-24T07:47:16.856Z,4.30
2023-05-24T07:48:16.906Z,4.10
2023-05-24T07:49:16.850Z,4.40
2023-05-24T07:50:18.291Z,3.90
2023-05-24T07:51:16.850Z,3.90
2023-05-24T07:52:16.821Z,3.90
2023-05-24T07:53:16.924Z,4.20
2023-05-24T07:54:16.808Z,4.50
2023-05-24T07:55:16.838Z,3.90
2023-05-24T07:56:16.933Z,4.30
2023-05-24T07:57:16.824Z,4.00
2023-05-24T07:58:16.816Z,3.90
2023-05-24T07:59:16.743Z,3.70
2023-05-24T08:00:16.728Z,3.80
2023-05-24T08:01:16.709Z,3.70
2023-05-24T08:02:17.277Z,4.10
2023-05-24T08:03:16.773Z,4.30
2023-05-24T08:04:16.704Z,3.60
2023-05-24T08:05:16.981Z,4.10
2023-05-24T08:06:16.674Z,3.90
2023-05-24T08:07:16.765Z,3.40
2023-05-24T08:08:16.822Z,4.10
2023-05-24T08:09:16.613Z,3.90
2023-05-24T08:10:16.659Z,3.80
2023-05-24T08:11:16.621Z,4.50
2023-05-24T08:12:17.307Z,4.10
2023-05-24T08:13:16.589Z,4.00
2023-05-24T08:14:16.635Z,3.50
2023-05-24T08:15:16.553Z,3.90
2023-05-24T08:16:16.642Z,3.70
2023-05-24T08:17:16.776Z,4.20
2023-05-24T08:18:16.519Z,3.80
2023-05-24T08:19:16.506Z,4.10
2023-05-24T08:20:16.528Z,3.70
2023-05-24T08:21:16.558Z,3.70
2023-05-24T08:22:16.474Z,3.90
2023-05-24T08:23:16.495Z,3.90
2023-05-24T08:24:16.606Z,3.80
2023-05-24T08:25:16.445Z,3.90
2023-05-24T08:26:16.489Z,3.70
2023-05-24T08:27:16.422Z,3.80
2023-05-24T08:28:16.476Z,3.40
2023-05-24T08:29:16.465Z,3.70
2023-05-24T08:30:16.730Z,3.70
2023-05-24T08:31:16.536Z,3.60
2023-05-24T08:32:16.415Z,4.30
2023-05-24T08:33:16.387Z,3.20
2023-05-24T08:34:16.359Z,3.70
2023-05-24T08:35:21.069Z,3.70
2023-05-24T08:36:17.549Z,3.30
2023-05-24T08:37:18.285Z,3.80
2023-05-24T08:38:16.336Z,3.60
2023-05-24T08:39:16.279Z,3.80
2023-05-24T08:40:16.347Z,3.60
2023-05-24T08:41:16.257Z,4.00
2023-05-24T08:42:16.203Z,3.10
2023-05-24T08:43:16.248Z,3.80
2023-05-24T08:44:18.250Z,3.50
2023-05-24T08:45:16.462Z,3.60
2023-05-24T08:46:17.289Z,4.00
2023-05-24T08:47:16.226Z,3.70
2023-05-24T08:48:16.316Z,3.70
2023-05-24T08:49:16.356Z,3.80
2023-05-24T08:50:16.400Z,5.00
2023-05-24T08:51:16.323Z,4.80
2023-05-24T08:52:16.177Z,3.80
2023-05-24T08:53:16.159Z,4.10
2023-05-24T08:54:16.174Z,3.80
2023-05-24T08:55:16.240Z,3.70
2023-05-24T08:56:16.110Z,3.70
2023-05-24T08:57:16.224Z,3.50
2023-05-24T08:58:16.077Z,3.70
2023-05-24T08:59:16.168Z,4.00
2023-05-24T09:00:16.117Z,4.20
2023-05-24T09:01:16.100Z,3.70
2023-05-24T09:02:16.055Z,3.80
2023-05-24T09:03:16.146Z,4.00
2023-05-24T09:04:17.136Z,3.70
2023-05-24T09:05:16.016Z,3.90
2023-05-24T09:06:16.004Z,4.00
2023-05-24T09:07:16.003Z,4.40
2023-05-24T09:08:16.098Z,4.30
2023-05-24T09:09:15.955Z,3.90
2023-05-24T09:10:15.962Z,3.80
2023-05-24T09:11:16.163Z,3.60
2023-05-24T09:12:21.836Z,4.80
2023-05-24T09:13:16.991Z,4.30
2023-05-24T09:14:15.946Z,4.50
2023-05-24T09:15:15.926Z,3.80
2023-05-24T09:16:15.928Z,3.80
2023-05-24T09:17:17.857Z,4.60
2023-05-24T09:18:16.034Z,4.90
2023-05-24T09:19:15.862Z,4.60
2023-05-24T09:20:15.878Z,4.50
2023-05-24T09:21:15.854Z,5.50
2023-05-24T09:22:15.881Z,5.40
2023-05-24T09:23:15.911Z,4.00
2023-05-24T09:24:15.957Z,4.30
2023-05-24T09:25:15.847Z,4.40
2023-05-24T09:26:15.950Z,5.10
2023-05-24T09:27:15.834Z,5.20
2023-05-24T09:28:15.753Z,4.60
2023-05-24T09:29:15.777Z,4.80
2023-05-24T09:30:15.817Z,3.70
2023-05-24T09:31:15.717Z,3.90
2023-05-24T09:32:15.784Z,4.10
2023-05-24T09:33:15.760Z,4.10
2023-05-24T09:34:15.717Z,4.40
2023-05-24T09:35:15.803Z,4.80
2023-05-24T09:36:15.804Z,4.40
2023-05-24T09:37:15.796Z,6.10
2023-05-24T09:38:15.686Z,4.80
2023-05-24T09:39:15.631Z,4.70
2023-05-24T09:40:15.638Z,5.70
2023-05-24T09:41:15.744Z,4.20
2023-05-24T09:42:15.739Z,4.40
2023-05-24T09:43:15.581Z,4.30
2023-05-24T09:44:15.580Z,4.30
2023-05-24T09:45:15.600Z,4.10
2023-05-24T09:46:15.667Z,4.60
2023-05-24T09:47:15.713Z,3.90
2023-05-24T09:48:15.564Z,3.80
2023-05-24T09:49:15.835Z,3.80
2023-05-24T09:50:15.523Z,3.60
2023-05-24T09:51:15.655Z,4.20
2023-05-24T09:52:15.515Z,4.00
2023-05-24T09:53:15.537Z,4.20
2023-05-24T09:54:15.511Z,4.00
2023-05-24T09:55:15.679Z,3.50
2023-05-24T09:56:15.636Z,4.10
2023-05-24T09:57:15.458Z,4.20
2023-05-24T09:58:15.424Z,4.00
2023-05-24T09:59:15.418Z,3.80
2023-05-24T10:00:15.520Z,4.30
2023-05-24T10:01:15.407Z,4.00
2023-05-24T10:02:15.395Z,4.70
2023-05-24T10:03:15.507Z,4.40
2023-05-24T10:04:15.464Z,3.90
2023-05-24T10:05:15.404Z,4.20
2023-05-24T10:06:15.765Z,3.80
2023-05-24T10:07:15.353Z,4.20
2023-05-24T10:08:15.403Z,4.80
2023-05-24T10:09:15.336Z,4.20
2023-05-24T10:10:15.421Z,4.40
2023-05-24T10:11:15.311Z,4.10
2023-05-24T10:12:15.420Z,4.30
2023-05-24T10:13:15.299Z,3.80
2023-05-24T10:14:15.244Z,4.60
2023-05-24T10:15:15.305Z,3.70
2023-05-24T10:16:15.256Z,3.90
2023-05-24T10:17:15.337Z,4.10
2023-05-24T10:18:15.320Z,4.00
2023-05-24T10:19:17.219Z,4.30
2023-05-24T10:20:15.319Z,3.70
2023-05-24T10:21:15.228Z,3.90
2023-05-24T10:22:15.176Z,3.80
2023-05-24T10:23:15.180Z,4.40
2023-05-24T10:24:15.317Z,4.10
2023-05-24T10:25:15.178Z,3.90
2023-05-24T10:26:15.126Z,3.50
2023-05-24T10:27:15.150Z,4.20
2023-05-24T10:28:15.127Z,4.10
2023-05-24T10:29:15.175Z,4.30
2023-05-24T10:30:15.180Z,4.10
2023-05-24T10:31:15.135Z,4.50
2023-05-24T10:32:15.091Z,4.20
2023-05-24T10:33:15.119Z,4.00
2023-05-24T10:34:15.093Z,4.50
2023-05-24T10:35:15.158Z,4.20
2023-05-24T10:36:15.047Z,3.90
2023-05-24T10:37:15.102Z,4.20
2023-05-24T10:38:15.048Z,4.40
2023-05-24T10:39:15.041Z,3.40
2023-05-24T10:40:14.994Z,3.70
2023-05-24T10:41:15.052Z,4.40
2023-05-24T10:42:14.960Z,4.20
2023-05-24T10:43:16.951Z,4.30
2023-05-24T10:44:15.020Z,4.20
2023-05-24T10:45:14.970Z,4.80
2023-05-24T10:46:14.991Z,4.60
2023-05-24T10:47:14.915Z,4.60
2023-05-24T10:48:15.003Z,4.70
2023-05-24T10:49:14.888Z,5.40
2023-05-24T10:50:14.887Z,4.90
2023-05-24T10:51:14.902Z,5.10
2023-05-24T10:52:14.846Z,5.00
2023-05-24T10:53:14.891Z,3.80
2023-05-24T10:54:14.886Z,4.20
2023-05-24T10:55:14.870Z,3.90
2023-05-24T10:56:16.777Z,5.20
2023-05-24T10:57:14.851Z,4.60
2023-05-24T10:58:14.765Z,5.60
2023-05-24T10:59:14.785Z,4.60
2023-05-24T11:00:20.435Z,5.00
2023-05-24T11:01:15.812Z,5.60
2023-05-24T11:02:15.029Z,5.30
2023-05-24T11:03:14.785Z,4.30
2023-05-24T11:04:14.704Z,4.60
2023-05-24T11:05:14.803Z,4.60
2023-05-24T11:06:14.747Z,3.70
2023-05-24T11:07:14.727Z,3.80
2023-05-24T11:08:14.751Z,4.20
2023-05-24T11:09:16.648Z,5.20
2023-05-24T11:10:14.694Z,5.30
2023-05-24T11:11:25.096Z,5.20
2023-05-24T11:12:15.685Z,4.80
2023-05-24T11:13:14.642Z,5.00
2023-05-24T11:14:14.650Z,5.70
2023-05-24T11:15:14.791Z,4.10
2023-05-24T11:16:14.665Z,5.70
2023-05-24T11:17:14.578Z,7.90
2023-05-24T11:18:14.707Z,6.10
2023-05-24T11:19:14.628Z,6.00
2023-05-24T11:20:14.609Z,6.20
2023-05-24T11:21:16.123Z,7.10
2023-05-24T11:22:14.581Z,4.70
2023-05-24T11:23:14.521Z,5.10
2023-05-24T11:24:14.533Z,4.80
2023-05-24T11:25:14.593Z,4.80
2023-05-24T11:26:14.518Z,5.60
2023-05-24T11:27:14.457Z,6.10
2023-05-24T11:28:14.513Z,4.30
2023-05-24T11:29:14.451Z,4.20
2023-05-24T11:30:14.491Z,4.80
2023-05-24T11:31:14.658Z,4.60
2023-05-24T11:32:14.559Z,4.30
2023-05-24T11:33:14.439Z,4.10
2023-05-24T11:34:15.961Z,4.60
2023-05-24T11:35:14.482Z,4.40
2023-05-24T11:36:14.451Z,4.80
2023-05-24T11:37:16.810Z,5.60
2023-05-24T11:38:14.449Z,4.50
2023-05-24T11:39:14.446Z,4.10
2023-05-24T11:40:15.363Z,4.20
2023-05-24T11:41:14.564Z,5.70
2023-05-24T11:42:14.370Z,5.40
2023-05-24T11:43:16.529Z,5.60
2023-05-24T11:44:14.342Z,4.10
2023-05-24T11:45:14.357Z,4.40
2023-05-24T11:46:14.369Z,4.80
2023-05-24T11:47:14.271Z,4.10
2023-05-24T11:48:14.311Z,4.30
2023-05-24T11:49:14.313Z,4.40
2023-05-24T11:50:14.206Z,3.90
2023-05-24T11:51:14.240Z,4.50
2023-05-24T11:52:14.189Z,4.90
2023-05-24T11:53:14.238Z,4.50
2023-05-24T11:54:14.275Z,4.20
2023-05-24T11:55:16.376Z,5.20
2023-05-24T11:56:14.167Z,4.70
2023-05-24T11:57:14.164Z,6.10
2023-05-24T11:58:14.238Z,5.00
2023-05-24T11:59:14.201Z,6.60
2023-05-24T12:00:14.129Z,4.80
2023-05-24T12:01:14.128Z,4.90
2023-05-24T12:02:14.177Z,4.70
2023-05-24T12:03:14.314Z,4.50
2023-05-24T12:04:14.153Z,4.40
2023-05-24T12:05:14.067Z,4.10
2023-05-24T12:06:14.344Z,4.90
2023-05-24T12:07:14.064Z,4.80
2023-05-24T12:08:14.054Z,4.80
2023-05-24T12:09:14.020Z,5.10
2023-05-24T12:10:14.056Z,4.80
2023-05-24T12:11:14.029Z,4.90
2023-05-24T12:12:14.159Z,5.70
2023-05-24T12:13:14.038Z,4.60
2023-05-24T12:14:13.967Z,5.10
2023-05-24T12:15:13.956Z,4.70
2023-05-24T12:16:13.968Z,5.30
2023-05-24T12:17:13.990Z,5.40
2023-05-24T12:18:13.986Z,4.70
2023-05-24T12:19:31.686Z,5.10
2023-05-24T12:20:14.923Z,4.80
2023-05-24T12:21:13.922Z,4.40
2023-05-24T12:22:13.977Z,4.50
2023-05-24T12:23:13.886Z,4.90
2023-05-24T12:24:13.874Z,4.70
2023-05-24T12:25:13.904Z,5.00
2023-05-24T12:26:14.324Z,4.70
2023-05-24T12:27:14.305Z,4.70
2023-05-24T12:28:13.858Z,4.40
2023-05-24T12:29:13.816Z,4.30
2023-05-24T12:30:13.793Z,3.90
2023-05-24T12:31:13.889Z,4.70
2023-05-24T12:32:15.208Z,4.80
2023-05-24T12:33:13.819Z,5.00
2023-05-24T12:34:13.773Z,4.40
2023-05-24T12:35:13.789Z,4.10
2023-05-24T12:36:13.888Z,4.60
2023-05-24T12:37:14.172Z,4.30
2023-05-24T12:38:13.729Z,4.10
2023-05-24T12:39:13.664Z,4.20
2023-05-24T12:40:13.757Z,4.50
2023-05-24T12:41:14.250Z,3.90
2023-05-24T12:42:13.962Z,3.90
2023-05-24T12:43:13.630Z,3.50
2023-05-24T12:44:13.644Z,3.70
2023-05-24T12:45:13.848Z,4.50
2023-05-24T12:46:13.677Z,4.80
2023-05-24T12:47:13.698Z,4.70
2023-05-24T12:48:13.624Z,5.50
2023-05-24T12:49:13.611Z,4.50
2023-05-24T12:50:13.656Z,4.20
2023-05-24T12:51:13.737Z,3.90
2023-05-24T12:52:13.570Z,4.30
2023-05-24T12:53:13.537Z,3.80
2023-05-24T12:54:13.594Z,4.40
2023-05-24T12:55:13.587Z,5.40
2023-05-24T12:56:13.511Z,4.50
2023-05-24T12:57:13.577Z,4.30
2023-05-24T12:58:13.842Z,5.00
2023-05-24T12:59:13.528Z,5.20
2023-05-24T13:00:13.536Z,5.10
2023-05-24T13:01:13.632Z,5.30
2023-05-24T13:02:13.437Z,5.80
2023-05-24T13:03:13.474Z,4.90
2023-05-24T13:04:13.513Z,4.50
2023-05-24T13:05:13.476Z,4.60
2023-05-24T13:06:13.418Z,5.50
2023-05-24T13:07:13.407Z,4.50
2023-05-24T13:08:13.407Z,5.00
2023-05-24T13:09:13.454Z,4.50
2023-05-24T13:10:13.414Z,4.60
2023-05-24T13:11:13.362Z,4.60
2023-05-24T13:12:13.317Z,5.20
2023-05-24T13:13:13.303Z,5.10
2023-05-24T13:14:13.434Z,5.40
2023-05-24T13:15:13.459Z,5.40
2023-05-24T13:16:13.637Z,4.40
2023-05-24T13:17:13.416Z,5.30
2023-05-24T13:18:13.539Z,5.10